Tiempo atmosférico en la estación meteorológica de Algarrobo, Málaga (80 m.)



Fecha
DESCASC
Temp. máxima en grados centígrados (hora)
DESCASC
Temp. mínima en grados centígrados (hora)
DESCASC
Temp. media en grados centígrados
DESCASC
Racha de viento máxima en m/sg (hora)
DESCASC
Velocidad máxima media en intervalos de 10 minutos(hora)
DESCASC
Precipitaciones diarias en mm
DESCASC
Precipitaciones de 00:00 a 06:00 en mm
DESCASC
Precipitaciones de 06:00 a 12:00 en mm
DESCASC
Precipitaciones de 12:00 a 18:00 en mm
DESCASC
Precipitaciones de 18:00 a 24:00 en mm
DESCASC
23-06-2019 26.1 (15:40) 18 (07:10) 22.1 5.28 (16:30) 3.89 (16:00) -- -- -- -- --
22-06-2019 25.7 (14:50) 16.3 (06:00) 21 6.67 (14:10) 4.44 (13:30) -- -- -- -- --
21-06-2019 25.4 (15:00) 16.1 (07:00) 20.8 6.94 (12:20) 4.44 (12:30) -- -- -- -- --
20-06-2019 26.7 (17:40) 16.9 (00:00) 21.8 10.56 (15:30) 5.83 (15:30) -- -- -- -- --
19-06-2019 27.9 (19:40) 16.1 (00:00) 22 6.39 (15:30) 3.33 (13:00) -- -- -- -- --
18-06-2019 26.3 (18:00) 15.2 (00:00) 20.7 4.72 (14:00) 3.06 (14:10) -- -- -- -- --
17-06-2019 24.1 (16:50) 14.7 (00:00) 19.4 5 (13:50) 3.33 (13:30) -- -- -- -- --
16-06-2019 24.3 (16:50) 13.9 (00:00) 19.1 5.83 (13:50) 3.61 (17:00) -- -- -- -- --
15-06-2019 26.4 (12:50) 13.2 (00:00) 19.8 5.83 (13:10) 3.89 (13:00) -- -- -- -- --
14-06-2019 22.2 (17:00) 16.4 (00:00) 19.3 10.83 (18:00) 6.39 (15:50) -- -- -- -- --
13-06-2019 24.3 (16:10) 16.2 (00:00) 20.3 6.11 (14:50) 3.89 (12:50) -- -- -- -- --
12-06-2019 23.3 (13:10) 17.7 (00:00) 20.5 15.28 (02:00) 6.11 (01:10) -- -- -- -- --
11-06-2019 29.2 (20:30) 16.1 (00:00) 22.7 12.5 (15:00) 7.5 (15:10) -- -- -- -- --
10-06-2019 28.6 (11:40) 18.7 (00:00) 23.7 13.89 (17:00) 8.89 (15:50) -- -- -- -- --
09-06-2019 24.9 (19:50) 18.1 (00:00) 21.5 8.89 (23:59) 5.83 (23:59) -- -- -- -- --
08-06-2019 24.2 (16:30) 15.5 (00:00) 19.9 9.17 (17:00) 5.56 (12:50) -- -- -- -- --
07-06-2019 28.4 (12:30) 14.4 (00:00) 21.4 11.94 (14:40) 7.5 (14:10) -- -- -- -- --
06-06-2019 24.9 (12:30) 15.4 (00:00) 20.1 6.39 (18:50) 3.61 (01:40) -- -- -- -- --
05-06-2019 28.3 (16:40) 18.3 (00:00) 23.3 14.72 (12:40) 9.44 (12:50) -- -- -- -- --
04-06-2019 28.3 (16:00) 13.2 (00:00) 20.7 7.22 (12:00) 4.72 (12:10) -- -- -- -- --
03-06-2019 24.4 (11:20) 14.4 (00:00) 19.4 5.83 (13:20) 4.17 (11:50) -- -- -- -- --
02-06-2019 25.5 (14:20) 14.3 (00:00) 19.9 6.11 (17:20) 4.17 (13:50) -- -- -- -- --
01-06-2019 25.3 (13:20) 14.8 (00:00) 20 7.78 (13:00) 4.72 (13:30) -- -- -- -- --
31-05-2019 23.9 (16:30) 14.8 (00:00) 19.3 9.72 (16:00) 5.83 (14:00) -- -- -- -- --
30-05-2019 23.8 (15:10) 14.7 (00:00) 19.2 10.56 (14:50) 5.83 (17:20) -- -- -- -- --
29-05-2019 24.6 (14:00) 16.8 (00:00) 20.7 8.33 (16:40) 5 (14:00) -- -- -- -- --
28-05-2019 24.5 (16:30) 16.1 (00:00) 20.3 8.61 (13:30) 6.11 (13:00) -- -- -- -- --
27-05-2019 26.7 (18:20) 14.2 (00:00) 20.5 5.28 (14:00) 3.33 (14:10) -- -- -- -- --
26-05-2019 24.1 (16:30) 13.9 (00:00) 19 5.56 (14:00) 3.61 (14:00) -- -- -- -- --

Gráficas

Temp. máximas Temp. mínimas Temp. medias Precipitaciones Rachas de viento máximas Velocidades máximas media en intervalos de 10 minutos

Datos horarios

Fecha y hora oficial Temperatura (ºC) Velocidad del viento (km/h) Dirección del viento Racha (km/h) Dirección de racha Precipitación (mm) Presión (hPa) Tendencia (hPa) Humedad (%)
2019-06-24 23:00:00 -- -- -- -- -- -- -- -- --
2019-06-24 22:00:00 -- -- -- -- -- -- -- -- --
2019-06-24 21:00:00 -- -- -- -- -- -- -- -- --
2019-06-24 20:00:00 -- -- -- -- -- -- -- -- --
2019-06-24 19:00:00 -- -- -- -- -- -- -- -- --
2019-06-24 18:00:00 -- -- -- -- -- -- -- -- --
2019-06-24 17:00:00 -- -- -- -- -- -- -- -- --
2019-06-24 16:00:00 -- -- -- -- -- -- -- -- --
2019-06-24 15:00:00 -- -- -- -- -- -- -- -- --
2019-06-24 14:00:00 -- -- -- -- -- -- -- -- --
2019-06-24 13:00:00 -- -- -- -- -- -- -- -- --
2019-06-24 12:00:00 -- -- -- -- -- -- -- -- --
2019-06-24 11:00:00 -- -- -- -- -- -- -- -- --
2019-06-24 10:00:00 -- -- -- -- -- -- -- -- --
2019-06-24 09:00:00 -- -- -- -- -- -- -- -- --
2019-06-24 08:00:00 18.1 3 Norte 5 Norte -- -- -- 81
2019-06-24 07:00:00 18 3 Este 10 Noroeste -- -- -- 77
2019-06-24 06:00:00 18.6 5 Norte 8 Norte -- -- -- 76
2019-06-24 05:00:00 18.5 4 Norte 6 Norte -- -- -- 77
2019-06-24 04:00:00 18.8 3 Norte 8 Norte -- -- -- 77
2019-06-24 03:00:00 19.1 4 Norte 8 Norte -- -- -- 75
2019-06-24 02:00:00 19.1 4 Norte 9 Norte -- -- -- 75
2019-06-24 01:00:00 19.1 3 Nordeste 5 Norte -- -- -- 80
2019-06-24 00:00:00 19.4 0 Calma 3 Este -- -- -- 80
2019-06-23 23:00:00 20.4 0 Calma 3 Nordeste -- -- -- 75
2019-06-23 22:00:00 21.9 0 Calma 5 Sudoeste -- -- -- 71
2019-06-23 21:00:00 23.4 0 Calma 9 Sudoeste -- -- -- 65
2019-06-23 20:00:00 24.1 6 Sudoeste 13 Sudoeste -- -- -- 65
2019-06-23 19:00:00 25.2 10 Sudoeste 15 Sudoeste -- -- -- 61
2019-06-23 18:00:00 24.8 10 Sudoeste 19 Sudoeste -- -- -- 64
2019-06-23 17:00:00 24.8 12 Sudoeste 19 Sudoeste -- -- -- 66
2019-06-23 16:00:00 25.4 14 Sudoeste 18 Sudoeste -- -- -- 63
2019-06-23 15:00:00 24.9 8 Sudoeste 13 Sur -- -- -- 65
2019-06-23 14:00:00 23.2 4 Sudoeste 10 Sudoeste -- -- -- 72
2019-06-23 13:00:00 23.1 6 Sudoeste 13 Sudoeste -- -- -- 73
2019-06-23 12:00:00 23 6 Sur 13 Sur -- -- -- 74
2019-06-23 11:00:00 23.3 8 Sur 13 Sur -- -- -- 72
2019-06-23 10:00:00 22.6 7 Sur 10 Sur -- -- -- 75
2019-06-23 09:00:00 21.3 4 Sudoeste 9 Sur -- -- -- 79
2019-06-23 08:00:00 18.6 3 Norte 5 Norte -- -- -- 90
2019-06-23 07:00:00 18.1 3 Nordeste 8 Norte -- -- -- 90
2019-06-23 06:00:00 18.1 4 Norte 7 Nordeste -- -- -- 89
2019-06-23 05:00:00 18.2 4 Norte 8 Nordeste -- -- -- 90
2019-06-23 04:00:00 18.5 3 Nordeste 6 Norte -- -- -- 90
2019-06-23 03:00:00 18.7 2 Norte 5 Nordeste -- -- -- 89
2019-06-23 02:00:00 18.9 2 Nordeste 3 Norte -- -- -- 88
2019-06-23 01:00:00 19.4 2 Sudeste 3 Nordeste -- -- -- 87
2019-06-23 00:00:00 19.9 0 Calma 3 Norte -- -- -- 84
2019-06-22 23:00:00 20.5 0 Calma 4 Sudoeste -- -- -- 81
2019-06-22 22:00:00 21.3 3 Sudoeste 15 Sur -- -- -- 80
2019-06-22 21:00:00 22.3 11 Sur 17 Sudeste -- -- -- 76
2019-06-22 20:00:00 23.2 10 Sur 22 Sudeste -- -- -- 74
2019-06-22 19:00:00 24.5 13 Sur 23 Sur -- -- -- 71
2019-06-22 18:00:00 25.3 10 Sur 18 Sur -- -- -- 68
2019-06-22 17:00:00 25.5 12 Sur 22 Sur -- -- -- 67
2019-06-22 16:00:00 25.4 13 Sur 19 Sur -- -- -- 67
2019-06-22 15:00:00 25.6 14 Sur 24 Sudeste -- -- -- 66
2019-06-22 14:00:00 24.6 12 Sudeste 24 Sudeste -- -- -- 67
2019-06-22 13:00:00 24.6 13 Sur 19 Sur -- -- -- 70
2019-06-22 12:00:00 23.7 11 Sudoeste 15 Sur -- -- -- 73
2019-06-22 11:00:00 22.9 9 Sur 15 Sudoeste -- -- -- 74
2019-06-22 10:00:00 23.3 7 Sur 12 Sur -- -- -- 63
2019-06-22 09:00:00 21.1 0 Calma 5 Oeste -- -- -- 67
2019-06-22 08:00:00 17.1 3 Nordeste 6 Norte -- -- -- 85
2019-06-22 07:00:00 16.7 3 Norte 6 Norte -- -- -- 89
2019-06-22 06:00:00 16.3 2 Norte 5 Nordeste -- -- -- 89
2019-06-22 05:00:00 16.4 3 Nordeste 6 Nordeste -- -- -- 89
2019-06-22 04:00:00 16.8 2 Norte 4 Nordeste -- -- -- 90
2019-06-22 03:00:00 17.3 0 Calma 6 Nordeste -- -- -- 89
2019-06-22 02:00:00 18 2 Norte 4 Sudeste -- -- -- 88
2019-06-22 01:00:00 18.8 3 Sudeste 6 Sudeste -- -- -- 84
2019-06-22 00:00:00 19.3 2 Sudeste 8 Sudeste -- -- -- 81
2019-06-21 23:00:00 19.8 0 Calma 5 Norte -- -- -- 76
2019-06-21 22:00:00 21.4 0 Calma 9 Sur -- -- -- 67
2019-06-21 21:00:00 23.5 8 Sur 13 Sudoeste -- -- -- 60
2019-06-21 20:00:00 24.2 7 Sur 12 Sudoeste -- -- -- 57
2019-06-21 19:00:00 24.8 8 Sudoeste 14 Sudoeste -- -- -- 57
2019-06-21 18:00:00 25.2 8 Sudoeste 15 Sudoeste -- -- -- 56
2019-06-21 17:00:00 25 9 Sur 17 Sudoeste -- -- -- 58
2019-06-21 16:00:00 24.8 11 Sur 18 Sudoeste -- -- -- 58
2019-06-21 15:00:00 25.4 11 Sur 17 Sur -- -- -- 55
2019-06-21 14:00:00 24.9 11 Sur 22 Sur -- -- -- 58
2019-06-21 13:00:00 23.6 14 Sur 25 Sudeste -- -- -- 66
2019-06-21 12:00:00 23.2 15 Sur 24 Sudeste -- -- -- 67
2019-06-21 11:00:00 24.1 11 Sur 18 Sudeste -- -- -- 64
2019-06-21 10:00:00 22.7 4 Sudoeste 10 Sudoeste -- -- -- 66
2019-06-21 09:00:00 21.9 2 Sudoeste 6 Sudoeste -- -- -- 59
2019-06-21 08:00:00 17 2 Sudeste 6 Norte -- -- -- 73
2019-06-21 07:00:00 16.1 3 Norte 6 Norte -- -- -- 75
2019-06-21 06:00:00 16.6 0 Calma 8 Norte -- -- -- 74
2019-06-21 05:00:00 17.2 3 Sudeste 9 Noroeste -- -- -- 73
2019-06-21 04:00:00 17.7 3 Norte 8 Sudeste -- -- -- 77
2019-06-21 03:00:00 17.4 2 Sur 6 Este -- -- -- 83
2019-06-21 02:00:00 17.8 2 Nordeste 7 Sudeste -- -- -- 82
2019-06-21 01:00:00 18.5 4 Sudeste 9 Sudeste -- -- -- 81
2019-06-21 00:00:00 19.5 5 Sudeste 12 Sudeste -- -- -- 76
2019-06-20 23:00:00 20.5 3 Este 13 Este -- -- -- 69
2019-06-20 22:00:00 21.3 8 Sudeste 13 Sudeste -- -- -- 67
2019-06-20 21:00:00 23.4 4 Sudeste 21 Sudoeste -- -- -- 60
2019-06-20 20:00:00 24 16 Sudoeste 28 Sudoeste -- -- -- 58
2019-06-20 19:00:00 25.3 18 Sudoeste 27 Sudoeste -- -- -- 53
2019-06-20 18:00:00 26.1 14 Sudoeste 26 Sudoeste -- -- -- 51
2019-06-20 17:00:00 26.3 12 Sudoeste 31 Oeste -- -- -- 50
2019-06-20 16:00:00 26 15 Sudoeste 38 Oeste -- -- -- 52
2019-06-20 15:00:00 25.1 10 Sur 24 Sur -- -- -- 57
2019-06-20 14:00:00 24.9 14 Sur 23 Sur -- -- -- 59
2019-06-20 13:00:00 24 10 Sudoeste 22 Sudoeste -- -- -- 62
2019-06-20 12:00:00 23.2 8 Sur 16 Sur -- -- -- 67
2019-06-20 11:00:00 22.3 12 Sudoeste 17 Sur -- -- -- 70
2019-06-20 10:00:00 21.4 10 Sudoeste 23 Sudoeste -- -- -- 74
2019-06-20 09:00:00 21.3 7 Sur 12 Sur -- -- -- 71
2019-06-20 08:00:00 18.4 3 Sudeste 9 Sudeste -- -- -- 69
2019-06-20 07:00:00 17.2 2 Norte 5 Norte -- -- -- 64
2019-06-20 06:00:00 19.2 4 Norte 16 Este -- -- -- 60
2019-06-20 05:00:00 21.4 4 Nordeste 21 Norte -- -- -- 51
2019-06-20 04:00:00 19.6 6 Norte 12 Nordeste -- -- -- 57
2019-06-20 03:00:00 18.9 3 Sudeste 6 Norte -- -- -- 63
2019-06-20 02:00:00 19.2 0 Calma 6 Sur -- -- -- 66
2019-06-20 01:00:00 19.4 0 Calma 5 Nordeste -- -- -- 68
2019-06-20 00:00:00 20.3 0 Calma 5 Norte -- -- -- 73
2019-06-19 23:00:00 21.7 3 Nordeste 5 Nordeste -- -- -- 69
2019-06-19 22:00:00 23.6 3 Este 12 Sur -- -- -- 60
2019-06-19 21:00:00 26.9 6 Sur 9 Sur -- -- -- 50
2019-06-19 20:00:00 27.7 4 Sudoeste 12 Sudoeste -- -- -- 47
2019-06-19 19:00:00 26.6 6 Sur 14 Sur -- -- -- 52
2019-06-19 18:00:00 26.6 7 Sudoeste 18 Sur -- -- -- 49
2019-06-19 17:00:00 26.5 9 Sur 20 Sudoeste -- -- -- 52
2019-06-19 16:00:00 25.7 9 Oeste 23 Oeste -- -- -- 56
2019-06-19 15:00:00 25.6 9 Oeste 22 Sudoeste -- -- -- 54
2019-06-19 14:00:00 24.8 9 Sur 22 Sudoeste -- -- -- 58
2019-06-19 13:00:00 25.4 12 Sudoeste 21 Sudoeste -- -- -- 58
2019-06-19 12:00:00 26.2 7 Sur 13 Sur -- -- -- 48
2019-06-19 11:00:00 23.2 9 Sur 14 Sur -- -- -- 67
2019-06-19 10:00:00 22.8 7 Sudoeste 11 Sudoeste -- -- -- 70
2019-06-19 09:00:00 21 0 Calma 4 Norte -- -- -- 60
2019-06-19 08:00:00 16.8 2 Norte 6 Norte -- -- -- 78
2019-06-19 07:00:00 17.3 4 Este 11 Este -- -- -- 70
2019-06-19 06:00:00 16.1 6 Norte 10 Norte -- -- -- 69
2019-06-19 05:00:00 -- -- -- -- -- -- -- -- --
2019-06-19 04:00:00 -- -- -- -- -- -- -- -- --
2019-06-19 03:00:00 -- -- -- -- -- -- -- -- --
2019-06-19 02:00:00 18.7 3 Sudeste 10 Sur -- -- -- 78
2019-06-19 01:00:00 -- -- -- -- -- -- -- -- --
2019-06-19 00:00:00 -- -- -- -- -- -- -- -- --
2019-06-18 23:00:00 -- -- -- -- -- -- -- -- --
2019-06-18 22:00:00 -- -- -- -- -- -- -- -- --
2019-06-18 21:00:00 -- -- -- -- -- -- -- -- --
2019-06-18 20:00:00 -- -- -- -- -- -- -- -- --
2019-06-18 19:00:00 -- -- -- -- -- -- -- -- --
2019-06-18 18:00:00 -- -- -- -- -- -- -- -- --
2019-06-18 17:00:00 -- -- -- -- -- -- -- -- --
2019-06-18 16:00:00 -- -- -- -- -- -- -- -- --
2019-06-18 15:00:00 -- -- -- -- -- -- -- -- --
2019-06-18 14:00:00 -- -- -- -- -- -- -- -- --
2019-06-18 13:00:00 -- -- -- -- -- -- -- -- --
2019-06-18 12:00:00 22.9 7 Sudoeste 12 Sudoeste -- -- -- 64
2019-06-18 11:00:00 21.8 7 Sudoeste 12 Sudoeste -- -- -- 71
2019-06-18 10:00:00 20.5 5 Sudoeste 12 Sur -- -- -- 78
2019-06-18 09:00:00 19.7 5 Sudoeste 10 Sudoeste -- -- -- 74
2019-06-18 08:00:00 15.3 3 Nordeste 5 Nordeste -- -- -- 69
2019-06-18 07:00:00 15.5 0 Calma 4 Norte -- -- -- 70
2019-06-18 06:00:00 17 4 Norte 11 Norte -- -- -- 63
2019-06-18 05:00:00 16.4 7 Norte 9 Norte -- -- -- 71
2019-06-18 04:00:00 16 3 Norte 12 Norte -- -- -- 79
2019-06-18 03:00:00 15.8 3 Norte 8 Nordeste -- -- -- 80
2019-06-18 02:00:00 16 3 Norte 5 Norte -- -- -- 89
2019-06-18 01:00:00 16.8 0 Calma 3 Sudeste -- -- -- 89
2019-06-18 00:00:00 17.3 0 Calma 4 Nordeste -- -- -- 88
2019-06-17 23:00:00 18.3 0 Calma 4 Sudeste -- -- -- 85
2019-06-17 22:00:00 19.8 0 Calma 5 Oeste -- -- -- 80
2019-06-17 21:00:00 21.6 5 Sudoeste 9 Sudoeste -- -- -- 77
2019-06-17 20:00:00 23 6 Sudoeste 13 Sur -- -- -- 69
2019-06-17 19:00:00 23.7 8 Sudoeste 15 Sur -- -- -- 63
2019-06-17 18:00:00 23.7 10 Sudoeste 16 Sudoeste -- -- -- 67
2019-06-17 17:00:00 23.9 10 Sudoeste 15 Sudoeste -- -- -- 67
2019-06-17 16:00:00 22.8 8 Sudoeste 17 Sudoeste -- -- -- 71
2019-06-17 15:00:00 23.5 9 Sudoeste 17 Sur -- -- -- 69
2019-06-17 14:00:00 22.7 10 Sudoeste 18 Sudoeste -- -- -- 72
2019-06-17 13:00:00 23.1 10 Sudoeste 16 Oeste -- -- -- 70
2019-06-17 12:00:00 22.3 10 Sudoeste 17 Sudoeste -- -- -- 73
2019-06-17 11:00:00 22.1 7 Sur 13 Sur -- -- -- 67
2019-06-17 10:00:00 21.8 6 Sudoeste 9 Sudoeste -- -- -- 60
2019-06-17 09:00:00 20 2 Sudoeste 5 Sudoeste -- -- -- 66
2019-06-17 08:00:00 15.8 4 Norte 7 Norte -- -- -- 75
2019-06-17 07:00:00 15.1 4 Norte 6 Norte -- -- -- 80
2019-06-17 06:00:00 15.1 5 Norte 7 Noroeste -- -- -- 79
2019-06-17 05:00:00 15.8 4 Norte 7 Norte -- -- -- 80
2019-06-17 04:00:00 16 5 Norte 6 Norte -- -- -- 78
2019-06-17 03:00:00 15.9 4 Nordeste 8 Norte -- -- -- 74
2019-06-17 02:00:00 16 3 Norte 6 Norte -- -- -- 76
2019-06-17 01:00:00 16.5 2 Nordeste 4 Norte -- -- -- 73
2019-06-17 00:00:00 17.1 3 Norte 5 Norte -- -- -- 74
2019-06-16 23:00:00 18.2 2 Nordeste 4 Norte -- -- -- 71
2019-06-16 22:00:00 20.5 0 Calma 5 Sudoeste -- -- -- 64
2019-06-16 21:00:00 23 4 Sudoeste 8 Sur -- -- -- 57
2019-06-16 20:00:00 24.1 5 Sudoeste 13 Sudoeste -- -- -- 56
2019-06-16 19:00:00 23.8 9 Sudoeste 15 Sudoeste -- -- -- 58
2019-06-16 18:00:00 23.5 9 Sudoeste 17 Sur -- -- -- 61
2019-06-16 17:00:00 24.1 13 Sudoeste 18 Sur -- -- -- 60
2019-06-16 16:00:00 24.1 12 Sudoeste 19 Sur -- -- -- 60
2019-06-16 15:00:00 22.6 9 Sudoeste 18 Sur -- -- -- 64
2019-06-16 14:00:00 22.9 11 Sur 21 Sur -- -- -- 60
2019-06-16 13:00:00 22.3 5 Sudoeste 14 Sudoeste -- -- -- 60
2019-06-16 12:00:00 22.3 11 Sur 17 Sur -- -- -- 59
2019-06-16 11:00:00 23.6 9 Sudoeste 13 Sudoeste -- -- -- 49
2019-06-16 10:00:00 21.6 7 Sur 10 Sudeste -- -- -- 58
2019-06-16 09:00:00 18.9 0 Calma 5 Norte -- -- -- 62
2019-06-16 08:00:00 16 3 Nordeste 6 Norte -- -- -- 76
2019-06-16 07:00:00 14.5 4 Norte 8 Norte -- -- -- 83
2019-06-16 06:00:00 14 4 Nordeste 6 Norte -- -- -- 86
2019-06-16 05:00:00 14.4 4 Norte 6 Norte -- -- -- 88
2019-06-16 04:00:00 14.7 0 Calma 4 Nordeste -- -- -- 89
2019-06-16 03:00:00 15.3 0 Calma 4 Nordeste -- -- -- 87
2019-06-16 02:00:00 16 3 Nordeste 5 Nordeste -- -- -- 85
2019-06-16 01:00:00 17.3 0 Calma 5 Sudeste -- -- -- 82
2019-06-16 00:00:00 17.9 3 Sudeste 7 Sudeste -- -- -- 76
2019-06-15 23:00:00 18.6 3 Sudeste 8 Sudeste -- -- -- 72
2019-06-15 22:00:00 20.2 2 Sur 4 Sudoeste -- -- -- 62
2019-06-15 21:00:00 22.9 4 Sudoeste 9 Sur -- -- -- 53
2019-06-15 20:00:00 24.5 4 Sudoeste 10 Sudoeste -- -- -- 45
2019-06-15 19:00:00 24.4 6 Sudoeste 15 Sur -- -- -- 45
2019-06-15 18:00:00 24.8 10 Sudoeste 15 Oeste -- -- -- 43
2019-06-15 17:00:00 24.2 8 Sudoeste 17 Sudoeste -- -- -- 42
2019-06-15 16:00:00 23.8 6 Sudoeste 16 Sudoeste -- -- -- 47
2019-06-15 15:00:00 23.1 6 Sudoeste 21 Sur -- -- -- 50
2019-06-15 14:00:00 23.9 9 Sudoeste 21 Sudoeste -- -- -- 48
2019-06-15 13:00:00 25.3 14 Sudoeste 20 Sur -- -- -- 45
2019-06-15 12:00:00 24.6 7 Sudoeste 13 Sudoeste -- -- -- 37
2019-06-15 11:00:00 23.3 7 Sur 14 Sudoeste -- -- -- 39
2019-06-15 10:00:00 21.6 5 Sur 9 Sudeste -- -- -- 45
2019-06-15 09:00:00 19.4 3 Sur 8 Sudeste -- -- -- 52
2019-06-15 08:00:00 13.9 0 Calma 5 Norte -- -- -- 68
2019-06-15 07:00:00 13.2 3 Nordeste 5 Norte -- -- -- 67
2019-06-15 06:00:00 14 0 Calma 6 Norte -- -- -- 64
2019-06-15 05:00:00 14.6 0 Calma 6 Norte -- -- -- 62
2019-06-15 04:00:00 16.4 3 Norte 11 Noroeste -- -- -- 56
2019-06-15 03:00:00 15.6 2 Norte 6 Noroeste -- -- -- 62
2019-06-15 02:00:00 16.7 2 Norte 6 Norte -- -- -- 57
2019-06-15 01:00:00 17.6 6 Norte 14 Norte -- -- -- 55
2019-06-15 00:00:00 16.4 0 Calma 4 Norte -- -- -- 70
2019-06-14 23:00:00 16.8 3 Norte 5 Norte -- -- -- 74
2019-06-14 22:00:00 18.2 3 Nordeste 9 Oeste -- -- -- 70
2019-06-14 21:00:00 20 6 Sudoeste 20 Sudoeste -- -- -- 64
2019-06-14 20:00:00 20.8 14 Sudoeste 25 Sudoeste -- -- -- 56
2019-06-14 19:00:00 21.6 13 Sudoeste 35 Sudoeste -- -- -- 51
2019-06-14 18:00:00 21.9 23 Sudoeste 39 Sudoeste -- -- -- 50
2019-06-14 17:00:00 22.2 16 Sudoeste 32 Oeste -- -- -- 53
2019-06-14 16:00:00 20.9 21 Sudoeste 37 Sudoeste -- -- -- 60
2019-06-14 15:00:00 21 23 Sudoeste 36 Sudoeste -- -- -- 60
2019-06-14 14:00:00 22 15 Sudoeste 34 Oeste -- -- -- 55
2019-06-14 13:00:00 21.2 16 Sudoeste 33 Sudoeste -- -- -- 59
2019-06-14 12:00:00 20 20 Sudoeste 33 Sudoeste -- -- -- 64
2019-06-14 11:00:00 19.4 15 Oeste 36 Sudoeste -- -- -- 63
2019-06-14 10:00:00 19.4 18 Sudoeste 31 Oeste -- -- -- 63
2019-06-14 09:00:00 18.6 13 Oeste 28 Sudoeste -- -- -- 69
2019-06-14 08:00:00 18.2 10 Sudoeste 18 Sudoeste -- -- -- 79
2019-06-14 07:00:00 18 4 Sudeste 8 Noroeste -- -- -- 90
2019-06-14 06:00:00 18.5 5 Oeste 25 Oeste -- -- -- 89
2019-06-14 05:00:00 19.2 5 Oeste 15 Noroeste -- -- -- 82
2019-06-14 04:00:00 19.5 8 Noroeste 11 Noroeste -- -- -- 82
2019-06-14 03:00:00 19.9 4 Noroeste 11 Noroeste -- -- -- 79
2019-06-14 02:00:00 20 2 Sudoeste 12 Sudoeste -- -- -- 80
2019-06-14 01:00:00 20.2 7 Sudoeste 11 Sudoeste -- -- -- 79
2019-06-14 00:00:00 20.6 4 Oeste 7 Oeste -- -- -- 76
2019-06-13 23:00:00 20.5 2 Oeste 7 Oeste -- -- -- 75
2019-06-13 22:00:00 20.5 3 Oeste 7 Sudoeste -- -- -- 73
2019-06-13 21:00:00 21.7 4 Sur 9 Sudoeste -- -- -- 68
2019-06-13 20:00:00 22.7 4 Sur 11 Sudoeste -- -- -- 64
2019-06-13 19:00:00 23 7 Sudoeste 15 Sudoeste -- -- -- 64
2019-06-13 18:00:00 23.5 9 Sudoeste 17 Sudoeste -- -- -- 63
2019-06-13 17:00:00 24 11 Sudoeste 19 Sudoeste -- -- -- 61
2019-06-13 16:00:00 24.2 12 Sudoeste 22 Sudoeste -- -- -- 60
2019-06-13 15:00:00 23.8 12 Sudoeste 22 Sudoeste -- -- -- 61
2019-06-13 14:00:00 23.7 12 Sudoeste 21 Sudoeste -- -- -- 61
2019-06-13 13:00:00 23.5 13 Sudoeste 20 Sudoeste -- -- -- 62
2019-06-13 12:00:00 23.3 12 Sudoeste 21 Sudoeste -- -- -- 62
2019-06-13 11:00:00 22.7 7 Sudoeste 13 Sudoeste -- -- -- 64
2019-06-13 10:00:00 21.1 6 Oeste 13 Oeste -- -- -- 71
2019-06-13 09:00:00 19.2 3 Oeste 6 Oeste -- -- -- 79
2019-06-13 08:00:00 16.7 4 Norte 5 Norte -- -- -- 89
2019-06-13 07:00:00 16.2 0 Calma 6 Nordeste -- -- -- 89
2019-06-13 06:00:00 16.6 3 Este 7 Sur -- -- -- 90
2019-06-13 05:00:00 16.4 2 Nordeste 8 Norte -- -- -- 88
2019-06-13 04:00:00 17 0 Calma 8 Norte -- -- -- 88
2019-06-13 03:00:00 17.3 5 Norte 8 Norte -- -- -- 88
2019-06-13 02:00:00 17.6 0 Calma 6 Sudeste -- -- -- 84
2019-06-13 01:00:00 18.7 3 Este 10 Sudeste -- -- -- 82
2019-06-13 00:00:00 19.3 3 Sudeste 24 Sudeste -- -- -- 80
2019-06-12 23:00:00 19.3 10 Sudeste 24 Sudeste -- -- -- 81
2019-06-12 22:00:00 19.6 10 Sudeste 21 Sudeste -- -- -- 77
2019-06-12 21:00:00 20 8 Sur 19 Sur -- -- -- 76
2019-06-12 20:00:00 20.6 11 Sur 25 Sudeste -- -- -- 73
2019-06-12 19:00:00 21.9 17 Sur 26 Sur -- -- -- 67
2019-06-12 18:00:00 22.3 17 Sur 30 Sur -- -- -- 66
2019-06-12 17:00:00 22.7 18 Sur 31 Sudeste -- -- -- 63
2019-06-12 16:00:00 22.9 19 Sur 33 Sur -- -- -- 61
2019-06-12 15:00:00 22.9 17 Sur 31 Sur -- -- -- 59
2019-06-12 14:00:00 23.1 18 Sur 31 Sur -- -- -- 57
2019-06-12 13:00:00 23.1 18 Sur 30 Sudeste -- -- -- 55
2019-06-12 12:00:00 22.3 18 Sur 28 Sudeste -- -- -- 55
2019-06-12 11:00:00 22.7 15 Sur 34 Este -- -- -- 56
2019-06-12 10:00:00 20.8 5 Sudeste 11 Sudeste -- -- -- 70
2019-06-12 09:00:00 19.2 4 Sudoeste 9 Sudoeste -- -- -- 77
2019-06-12 08:00:00 18.9 4 Noroeste 8 Sudoeste -- -- -- 78
2019-06-12 07:00:00 18.4 2 Este 11 Sudeste -- -- -- 79
2019-06-12 06:00:00 18.3 6 Sudeste 22 Sudeste -- -- -- 80
2019-06-12 05:00:00 18.8 10 Sudeste 18 Sudeste -- -- -- 79
2019-06-12 04:00:00 19 8 Este 30 Este -- -- -- 80
2019-06-12 03:00:00 19 13 Sudeste 45 Sudeste -- -- -- 82
2019-06-12 02:00:00 19.6 21 Sudeste 55 Sudeste -- -- -- 77
2019-06-12 01:00:00 21.6 14 Este 46 Sudeste -- -- -- 56
2019-06-12 00:00:00 17.7 2 Sur 8 Este -- -- -- 66
2019-06-11 23:00:00 18.2 5 Sudeste 17 Sudeste -- -- -- 76
2019-06-11 22:00:00 19.2 3 Este 16 Sur -- -- -- 71
2019-06-11 21:00:00 22.2 11 Sur 27 Noroeste -- -- -- 60
2019-06-11 20:00:00 23.6 7 Sur 36 Oeste -- -- -- 53
2019-06-11 19:00:00 23.4 11 Oeste 44 Oeste -- -- -- 55
2019-06-11 18:00:00 23.4 21 Sudoeste 39 Sudoeste -- -- -- 57
2019-06-11 17:00:00 22.4 24 Sudoeste 42 Oeste -- -- -- 60
2019-06-11 16:00:00 24.1 17 Sudoeste 42 Sudoeste -- -- -- 55
2019-06-11 15:00:00 22.4 26 Sudoeste 45 Sudoeste -- -- -- 58
2019-06-11 14:00:00 22.7 17 Sur 31 Oeste -- -- -- 55
2019-06-11 13:00:00 21.2 10 Sudoeste 34 Sudoeste -- -- -- 59
2019-06-11 12:00:00 21.2 20 Sudoeste 39 Sudoeste -- -- -- 57
2019-06-11 11:00:00 20.6 20 Sudoeste 37 Sudoeste -- -- -- 63
2019-06-11 10:00:00 26.4 14 Noroeste 27 Noroeste -- -- -- 31
2019-06-11 09:00:00 23 5 Sudoeste 15 Norte -- -- -- 41
2019-06-11 08:00:00 16.3 5 Norte 10 Norte -- -- -- 64
2019-06-11 07:00:00 18.1 3 Norte 15 Norte -- -- -- 51
2019-06-11 06:00:00 19.3 6 Norte 13 Norte -- -- -- 45
2019-06-11 05:00:00 18.9 5 Norte 15 Norte -- -- -- 49
2019-06-11 04:00:00 19.1 4 Norte 12 Nordeste -- -- -- 48
2019-06-11 03:00:00 19.2 6 Norte 14 Norte -- -- -- 48
2019-06-11 02:00:00 20.4 4 Norte 17 Noroeste -- -- -- 47
2019-06-11 01:00:00 22.4 9 Norte 20 Norte -- -- -- 41
2019-06-11 00:00:00 23.3 14 Noroeste 31 Noroeste -- -- -- 40
2019-06-10 23:00:00 20.1 4 Sudeste 17 Noroeste -- -- -- 61
2019-06-10 22:00:00 25.9 12 Noroeste 28 Noroeste -- -- -- 28
2019-06-10 21:00:00 28.3 17 Noroeste 30 Noroeste -- -- -- 24
2019-06-10 20:00:00 23.9 11 Sudoeste 29 Oeste -- -- -- 52
2019-06-10 19:00:00 22.6 15 Sudoeste 40 Sudoeste -- -- -- 60
2019-06-10 18:00:00 23.2 26 Sudoeste 47 Sudoeste -- -- -- 58
2019-06-10 17:00:00 22.4 31 Sudoeste 50 Sudoeste -- -- -- 61
2019-06-10 16:00:00 21.8 32 Sudoeste 48 Oeste -- -- -- 62
2019-06-10 15:00:00 22.2 30 Sudoeste 48 Sudoeste -- -- -- 60
2019-06-10 14:00:00 22.9 20 Sudoeste 41 Sudoeste -- -- -- 57
2019-06-10 13:00:00 20.9 23 Sudoeste 43 Sudoeste -- -- -- 65
2019-06-10 12:00:00 24.3 21 Sudoeste 37 Sudoeste -- -- -- 52
2019-06-10 11:00:00 27.7 9 Oeste 27 Noroeste -- -- -- 29
2019-06-10 10:00:00 26.4 12 Noroeste 20 Noroeste -- -- -- 32
2019-06-10 09:00:00 23.8 7 Noroeste 13 Oeste -- -- -- 40
2019-06-10 08:00:00 20.1 6 Noroeste 21 Noroeste -- -- -- 48
2019-06-10 07:00:00 19.5 4 Norte 14 Norte -- -- -- 46
2019-06-10 06:00:00 19.4 5 Norte 15 Norte -- -- -- 46
2019-06-10 05:00:00 18.7 5 Norte 13 Norte -- -- -- 48
2019-06-10 04:00:00 20.7 3 Nordeste 27 Noroeste -- -- -- 44
2019-06-10 03:00:00 23 19 Noroeste 34 Noroeste -- -- -- 37
2019-06-10 02:00:00 23.3 26 Noroeste 42 Noroeste -- -- -- 36
2019-06-10 01:00:00 23.8 22 Noroeste 36 Norte -- -- -- 33
2019-06-10 00:00:00 22.5 21 Noroeste 32 Noroeste -- -- -- 33
2019-06-09 23:00:00 19.4 4 Este 8 Sudeste -- -- -- 67
2019-06-09 22:00:00 20.7 4 Sudeste 18 Sudoeste -- -- -- 63
2019-06-09 21:00:00 23.4 11 Sudoeste 21 Sudoeste -- -- -- 54
2019-06-09 20:00:00 24.7 12 Sudoeste 23 Sudoeste -- -- -- 52
2019-06-09 19:00:00 24.1 6 Sur 18 Sudoeste -- -- -- 55
2019-06-09 18:00:00 23.8 10 Sudoeste 23 Sudoeste -- -- -- 54
2019-06-09 17:00:00 23.6 10 Sudoeste 24 Sudoeste -- -- -- 60
2019-06-09 16:00:00 23.2 13 Sudoeste 28 Oeste -- -- -- 64
2019-06-09 15:00:00 21.7 18 Sudoeste 30 Sudoeste -- -- -- 73
2019-06-09 14:00:00 22.3 14 Oeste 30 Oeste -- -- -- 75
2019-06-09 13:00:00 22.4 13 Oeste 27 Oeste -- -- -- 77
2019-06-09 12:00:00 22.3 14 Sudoeste 23 Sudoeste -- -- -- 76
2019-06-09 11:00:00 21.2 12 Sudoeste 23 Sudoeste -- -- -- 79
2019-06-09 10:00:00 21.3 12 Sudoeste 17 Sudoeste -- -- -- 78
2019-06-09 09:00:00 20.1 5 Oeste 8 Sudoeste -- -- -- 83
2019-06-09 08:00:00 20.2 5 Sur 6 Sudoeste -- -- -- 82
2019-06-09 07:00:00 19.9 0 Calma 4 Sudoeste -- -- -- 82
2019-06-09 06:00:00 20 0 Calma 5 Sudoeste -- -- -- 83
2019-06-09 05:00:00 20 3 Sudoeste 5 Sudoeste -- -- -- 83
2019-06-09 04:00:00 20.1 2 Sudoeste 8 Sur -- -- -- 84
2019-06-09 03:00:00 20.3 5 Sur 14 Sudeste -- -- -- 82
2019-06-09 02:00:00 20.7 9 Sudeste 16 Sur -- -- -- 81
2019-06-09 01:00:00 20.8 6 Sur 13 Sur -- -- -- 79
2019-06-09 00:00:00 20.9 5 Sudeste 13 Sudeste -- -- -- 78
2019-06-08 23:00:00 20.8 7 Sudeste 14 Sudeste -- -- -- 79
2019-06-08 22:00:00 20.9 6 Sudeste 19 Sudeste -- -- -- 79
2019-06-08 21:00:00 21.7 9 Sudeste 20 Sudeste -- -- -- 75
2019-06-08 20:00:00 22.5 14 Sur 25 Sudeste -- -- -- 71
2019-06-08 19:00:00 23.5 13 Sudeste 29 Sur -- -- -- 67
2019-06-08 18:00:00 23.6 18 Sur 30 Sudeste -- -- -- 65
2019-06-08 17:00:00 23.8 16 Sur 33 Sur -- -- -- 66
2019-06-08 16:00:00 23.9 17 Sur 32 Sur -- -- -- 66
2019-06-08 15:00:00 23.8 18 Sur 31 Sudeste -- -- -- 66
2019-06-08 14:00:00 23 19 Sur 32 Sudeste -- -- -- 69
2019-06-08 13:00:00 23 18 Sur 32 Sudeste -- -- -- 67
2019-06-08 12:00:00 22.9 17 Sur 30 Sur -- -- -- 65
2019-06-08 11:00:00 22.8 14 Sudeste 26 Sur -- -- -- 62
2019-06-08 10:00:00 22.2 4 Sur 9 Sur -- -- -- 65
2019-06-08 09:00:00 20.2 4 Sur 7 Sur -- -- -- 70
2019-06-08 08:00:00 15.9 4 Norte 7 Norte -- -- -- 85
2019-06-08 07:00:00 15.5 5 Nordeste 9 Norte -- -- -- 84
2019-06-08 06:00:00 16.2 3 Nordeste 13 Sudeste -- -- -- 83
2019-06-08 05:00:00 16.2 3 Norte 11 Este -- -- -- 80
2019-06-08 04:00:00 16.9 4 Este 11 Sudeste -- -- -- 80
2019-06-08 03:00:00 16.4 3 Sur 5 Sudeste -- -- -- 82
2019-06-08 02:00:00 16.8 0 Calma 5 Norte -- -- -- 74
2019-06-08 01:00:00 17.4 2 Sur 4 Nordeste -- -- -- 72
2019-06-08 00:00:00 17.6 2 Norte 3 Nordeste -- -- -- 73
2019-06-07 23:00:00 18.2 0 Calma 4 Norte -- -- -- 72
2019-06-07 22:00:00 19.7 0 Calma 9 Sur -- -- -- 66
2019-06-07 21:00:00 21.9 6 Sur 10 Sur -- -- -- 60
2019-06-07 20:00:00 22.4 5 Sur 13 Noroeste -- -- -- 58
2019-06-07 19:00:00 22.4 5 Sur 21 Sur -- -- -- 60
2019-06-07 18:00:00 22.7 13 Sur 30 Sudoeste -- -- -- 59
2019-06-07 17:00:00 23.2 21 Sudoeste 36 Sudoeste -- -- -- 60
2019-06-07 16:00:00 23.2 11 Sudoeste 35 Oeste -- -- -- 58
2019-06-07 15:00:00 22.8 18 Sudoeste 43 Sudoeste -- -- -- 63
2019-06-07 14:00:00 25.2 25 Sudoeste 39 Sudoeste -- -- -- 55
2019-06-07 13:00:00 25.7 23 Sudoeste 39 Sudoeste -- -- -- 48
2019-06-07 12:00:00 27.7 20 Noroeste 36 Oeste -- -- -- 38
2019-06-07 11:00:00 26.4 17 Noroeste 38 Norte -- -- -- 41
2019-06-07 10:00:00 24.4 16 Noroeste 33 Noroeste -- -- -- 44
2019-06-07 09:00:00 22.7 17 Noroeste 31 Noroeste -- -- -- 49
2019-06-07 08:00:00 18.7 8 Norte 20 Noroeste -- -- -- 57
2019-06-07 07:00:00 19.4 15 Noroeste 26 Noroeste -- -- -- 53
2019-06-07 06:00:00 15.8 0 Calma 12 Oeste -- -- -- 60
2019-06-07 05:00:00 15.3 6 Noroeste 9 Noroeste -- -- -- 60
2019-06-07 04:00:00 14.5 4 Norte 9 Norte -- -- -- 53
2019-06-07 03:00:00 14.6 0 Calma 5 Norte -- -- -- 56
2019-06-07 02:00:00 15.2 2 Nordeste 6 Este -- -- -- 67
2019-06-07 01:00:00 16.9 4 Este 9 Sur -- -- -- 69
2019-06-07 00:00:00 16.9 0 Calma 8 Nordeste -- -- -- 56
2019-06-06 23:00:00 18 3 Sudeste 4 Sudeste -- -- -- 62
2019-06-06 22:00:00 19.8 2 Sudeste 12 Sudoeste -- -- -- 57
2019-06-06 21:00:00 23.7 2 Nordeste 17 Sudoeste -- -- -- 42
2019-06-06 20:00:00 23.5 10 Sudoeste 21 Oeste -- -- -- 46
2019-06-06 19:00:00 24 12 Sudoeste 23 Oeste -- -- -- 43
2019-06-06 18:00:00 23.6 10 Sudoeste 20 Oeste -- -- -- 50
2019-06-06 17:00:00 23.6 6 Sur 15 Sudoeste -- -- -- 44
2019-06-06 16:00:00 23.6 9 Oeste 17 Sudoeste -- -- -- 42
2019-06-06 15:00:00 22.7 8 Sudoeste 20 Sudoeste -- -- -- 52
2019-06-06 14:00:00 22.7 9 Sudoeste 17 Sur -- -- -- 57
2019-06-06 13:00:00 22.9 12 Sur 21 Sur -- -- -- 58
2019-06-06 12:00:00 24.6 9 Sur 15 Sudoeste -- -- -- 35
2019-06-06 11:00:00 23.5 7 Sudoeste 12 Sudoeste -- -- -- 41
2019-06-06 10:00:00 22.6 6 Sur 10 Sur -- -- -- 40
2019-06-06 09:00:00 20.5 0 Calma 3 Sur -- -- -- 39
2019-06-06 08:00:00 15.5 0 Calma 10 Norte -- -- -- 51
2019-06-06 07:00:00 16.2 5 Nordeste 12 Norte -- -- -- 44
2019-06-06 06:00:00 15.7 5 Norte 9 Norte -- -- -- 46
2019-06-06 05:00:00 16.6 5 Nordeste 16 Norte -- -- -- 42
2019-06-06 04:00:00 18.2 7 Norte 19 Nordeste -- -- -- 39
2019-06-06 03:00:00 17.4 6 Norte 12 Norte -- -- -- 40
2019-06-06 02:00:00 19.8 10 Norte 22 Noroeste -- -- -- 41
2019-06-06 01:00:00 18.7 5 Norte 10 Norte -- -- -- 36
2019-06-06 00:00:00 21.3 7 Norte 23 Noroeste -- -- -- 31
2019-06-05 23:00:00 22.5 13 Noroeste 30 Noroeste -- -- -- 28
2019-06-05 22:00:00 24.1 19 Noroeste 32 Noroeste -- -- -- 26
2019-06-05 21:00:00 25.6 19 Noroeste 33 Noroeste -- -- -- 24
2019-06-05 20:00:00 26.1 21 Noroeste 35 Norte -- -- -- 25
2019-06-05 19:00:00 26.4 22 Noroeste 42 Noroeste -- -- -- 26
2019-06-05 18:00:00 27 22 Noroeste 43 Noroeste -- -- -- 25
2019-06-05 17:00:00 27.9 26 Noroeste 44 Oeste -- -- -- 25
2019-06-05 16:00:00 27.8 26 Noroeste 49 Oeste -- -- -- 23
2019-06-05 15:00:00 27.3 33 Noroeste 52 Noroeste -- -- -- 23
2019-06-05 14:00:00 27.6 26 Noroeste 50 Noroeste -- -- -- 21
2019-06-05 13:00:00 25.9 30 Noroeste 53 Noroeste -- -- -- 21
2019-06-05 12:00:00 23.1 23 Noroeste 41 Noroeste -- -- -- 28
2019-06-05 11:00:00 22.8 23 Noroeste 46 Oeste -- -- -- 28
2019-06-05 10:00:00 21.2 23 Oeste 40 Oeste -- -- -- 34
2019-06-05 09:00:00 20 21 Noroeste 46 Noroeste -- -- -- 39
2019-06-05 08:00:00 19.7 26 Noroeste 40 Noroeste -- -- -- 51
2019-06-05 07:00:00 19.7 18 Noroeste 30 Noroeste -- -- -- 58
2019-06-05 06:00:00 20.5 15 Noroeste 32 Noroeste -- -- -- 60
2019-06-05 05:00:00 21.1 17 Noroeste 28 Noroeste -- -- -- 63
2019-06-05 04:00:00 19.2 5 Noroeste 19 Oeste -- -- -- 78
2019-06-05 03:00:00 18.3 6 Noroeste 9 Noroeste -- -- -- 82
2019-06-05 02:00:00 19.1 0 Calma 7 Sudoeste -- -- -- 80
2019-06-05 01:00:00 20.3 5 Sudoeste 12 Sudoeste -- -- -- 79
2019-06-05 00:00:00 20.7 0 Calma 9 Nordeste -- -- -- 72
2019-06-04 23:00:00 21.2 4 Noroeste 11 Sudeste -- -- -- 70
2019-06-04 22:00:00 22.1 4 Sudeste 16 Sudeste -- -- -- 66
2019-06-04 21:00:00 23.1 6 Sudeste 13 Sur -- -- -- 65
2019-06-04 20:00:00 24.7 7 Sur 15 Sur -- -- -- 60
2019-06-04 19:00:00 26.6 10 Sudoeste 15 Sur -- -- -- 52
2019-06-04 18:00:00 27.6 5 Sudoeste 14 Sur -- -- -- 47
2019-06-04 17:00:00 28.1 9 Sur 17 Sur -- -- -- 35
2019-06-04 16:00:00 28.3 9 Sur 14 Sudoeste -- -- -- 34
2019-06-04 15:00:00 25.7 5 Sudoeste 15 Sudoeste -- -- -- 40
2019-06-04 14:00:00 23.6 7 Sudoeste 13 Sudoeste -- -- -- 60
2019-06-04 13:00:00 22.4 8 Sudoeste 24 Sur -- -- -- 74
2019-06-04 12:00:00 24.4 15 Sudoeste 26 Sur -- -- -- 62
2019-06-04 11:00:00 22.9 7 Sudoeste 14 Sudoeste -- -- -- 58
2019-06-04 10:00:00 22.4 4 Sudoeste 9 Sudoeste -- -- -- 44
2019-06-04 09:00:00 19.9 3 Sur 7 Norte -- -- -- 57
2019-06-04 08:00:00 13.9 3 Norte 4 Norte -- -- -- 74
2019-06-04 07:00:00 13.5 0 Calma 6 Nordeste -- -- -- 66
2019-06-04 06:00:00 13.5 2 Norte 5 Norte -- -- -- 71
2019-06-04 05:00:00 -- -- -- -- -- -- -- -- --
2019-06-04 04:00:00 14.4 3 Norte 5 Norte -- -- -- 71
2019-06-04 03:00:00 15.3 3 Nordeste 6 Norte -- -- -- 71
2019-06-04 02:00:00 16.2 2 Sudeste 10 Norte -- -- -- 69
2019-06-04 01:00:00 16.3 7 Norte 12 Nordeste -- -- -- 73
2019-06-04 00:00:00 16.5 4 Norte 7 Norte -- -- -- 76
2019-06-03 23:00:00 17.7 2 Norte 3 Nordeste -- -- -- 80
2019-06-03 22:00:00 19.9 0 Calma 5 Sudoeste -- -- -- 72
2019-06-03 21:00:00 22.4 3 Sudoeste 10 Sudoeste -- -- -- 65
2019-06-03 20:00:00 23.6 9 Sudoeste 12 Sudoeste -- -- -- 63
2019-06-03 19:00:00 24.1 5 Sudoeste 16 Sudoeste -- -- -- 59
2019-06-03 18:00:00 23.9 10 Sur 17 Sur -- -- -- 64
2019-06-03 17:00:00 23.9 10 Sur 18 Sur -- -- -- 65
2019-06-03 16:00:00 23.4 11 Sur 18 Sudoeste -- -- -- 67
2019-06-03 15:00:00 22.7 11 Sur 19 Sudoeste -- -- -- 71
2019-06-03 14:00:00 23.1 12 Sur 21 Sur -- -- -- 71
2019-06-03 13:00:00 23.5 13 Sur 18 Sur -- -- -- 64
2019-06-03 12:00:00 23.2 13 Sur 18 Sur -- -- -- 57
2019-06-03 11:00:00 24.1 9 Sur 13 Sur -- -- -- 38
2019-06-03 10:00:00 23.4 7 Sur 11 Sudoeste -- -- -- 38
2019-06-03 09:00:00 20.1 2 Norte 5 Norte -- -- -- 49
2019-06-03 08:00:00 14.9 4 Norte 6 Norte -- -- -- 64
2019-06-03 07:00:00 14.5 2 Nordeste 7 Norte -- -- -- 63
2019-06-03 06:00:00 15.4 5 Norte 8 Norte -- -- -- 59
2019-06-03 05:00:00 15.3 3 Nordeste 9 Norte -- -- -- 60
2019-06-03 04:00:00 15.7 4 Norte 8 Norte -- -- -- 58
2019-06-03 03:00:00 15.7 4 Norte 7 Norte -- -- -- 60
2019-06-03 02:00:00 16.1 0 Calma 4 Nordeste -- -- -- 65
2019-06-03 01:00:00 16.9 3 Nordeste 7 Nordeste -- -- -- 64
2019-06-03 00:00:00 17.3 3 Norte 6 Norte -- -- -- 67
2019-06-02 23:00:00 18 3 Norte 6 Norte -- -- -- 65
2019-06-02 22:00:00 19.7 3 Norte 5 Sur -- -- -- 59
2019-06-02 21:00:00 22.3 4 Sur 12 Sur -- -- -- 52
2019-06-02 20:00:00 23.5 8 Sur 15 Sur -- -- -- 49
2019-06-02 19:00:00 24 12 Sur 19 Sur -- -- -- 47
2019-06-02 18:00:00 24.5 12 Sur 22 Sur -- -- -- 47
2019-06-02 17:00:00 24.9 14 Sur 21 Sur -- -- -- 44
2019-06-02 16:00:00 25.1 13 Sudoeste 19 Sudoeste -- -- -- 40
2019-06-02 15:00:00 24.6 13 Sudoeste 20 Sudoeste -- -- -- 42
2019-06-02 14:00:00 24.9 13 Sudoeste 19 Sudoeste -- -- -- 41
2019-06-02 13:00:00 25.2 14 Sur 18 Sudoeste -- -- -- 41
2019-06-02 12:00:00 24.6 12 Sudoeste 17 Sudoeste -- -- -- 41
2019-06-02 11:00:00 23.7 11 Sudoeste 15 Sudoeste -- -- -- 44
2019-06-02 10:00:00 23.3 6 Oeste 11 Noroeste -- -- -- 41
2019-06-02 09:00:00 20.3 3 Norte 9 Norte -- -- -- 55
2019-06-02 08:00:00 15.1 5 Norte 9 Norte -- -- -- 69
2019-06-02 07:00:00 14.6 4 Nordeste 10 Norte -- -- -- 70
2019-06-02 06:00:00 14.6 7 Norte 12 Norte -- -- -- 70
2019-06-02 05:00:00 14.8 0 Calma 8 Norte -- -- -- 74
2019-06-02 04:00:00 15.9 5 Norte 9 Norte -- -- -- 66
2019-06-02 03:00:00 15.9 6 Norte 9 Norte -- -- -- 67
2019-06-02 02:00:00 16.5 3 Norte 9 Norte -- -- -- 66
2019-06-02 01:00:00 16.6 3 Nordeste 5 Nordeste -- -- -- 67
2019-06-02 00:00:00 17.3 2 Norte 5 Norte -- -- -- 64
2019-06-01 23:00:00 18.7 3 Nordeste 11 Sudeste -- -- -- 58
2019-06-01 22:00:00 20.6 6 Sudeste 17 Sudeste -- -- -- 51
2019-06-01 21:00:00 22.1 11 Sudeste 26 Sudeste -- -- -- 48
2019-06-01 20:00:00 23.3 14 Sur 23 Sudeste -- -- -- 45
2019-06-01 19:00:00 23.5 14 Sur 25 Sudeste -- -- -- 46
2019-06-01 18:00:00 24.2 15 Sur 24 Sur -- -- -- 47
2019-06-01 17:00:00 24.7 15 Sur 25 Sur -- -- -- 45
2019-06-01 16:00:00 25.2 12 Sur 21 Sur -- -- -- 43
2019-06-01 15:00:00 25.1 13 Sur 24 Sur -- -- -- 42
2019-06-01 14:00:00 24.7 13 Sur 25 Sur -- -- -- 44
2019-06-01 13:00:00 24.8 14 Sur 28 Sudeste -- -- -- 40
2019-06-01 12:00:00 24.7 12 Sur 22 Sur -- -- -- 46
2019-06-01 11:00:00 24.2 12 Sudoeste 17 Sur -- -- -- 48
2019-06-01 10:00:00 23.4 6 Sur 12 Sur -- -- -- 52
2019-06-01 09:00:00 20.6 4 Norte 9 Norte -- -- -- 63
2019-06-01 08:00:00 16 7 Norte 13 Norte -- -- -- 78
2019-06-01 07:00:00 15.6 8 Norte 14 Norte -- -- -- 79
2019-06-01 06:00:00 15.1 6 Norte 10 Norte -- -- -- 83
2019-06-01 05:00:00 15 3 Norte 6 Norte -- -- -- 87
2019-06-01 04:00:00 15.5 0 Calma 7 Norte -- -- -- 85
2019-06-01 03:00:00 15.9 5 Norte 8 Norte -- -- -- 84
2019-06-01 02:00:00 16.2 4 Norte 6 Norte -- -- -- 83
2019-06-01 01:00:00 16.6 3 Norte 6 Norte -- -- -- 81
2019-06-01 00:00:00 17.1 3 Norte 5 Norte -- -- -- 78
2019-05-31 23:00:00 17.8 3 Norte 4 Norte -- -- -- 75
2019-05-31 22:00:00 19.4 0 Calma 6 Sudoeste -- -- -- 68
2019-05-31 21:00:00 21.2 5 Sur 13 Sudoeste -- -- -- 62
2019-05-31 20:00:00 22.4 10 Sudoeste 17 Sur -- -- -- 59
2019-05-31 19:00:00 23.3 12 Sur 23 Sur -- -- -- 54
2019-05-31 18:00:00 23.9 14 Sur 23 Sur -- -- -- 52
2019-05-31 17:00:00 23.9 15 Sur 30 Sudeste -- -- -- 52
2019-05-31 16:00:00 23.3 19 Sur 35 Sudeste -- -- -- 53
2019-05-31 15:00:00 23.4 17 Sudeste 29 Sur -- -- -- 54
2019-05-31 14:00:00 23.3 21 Sur 29 Sudeste -- -- -- 57
2019-05-31 13:00:00 23.4 18 Sur 34 Sur -- -- -- 50
2019-05-31 12:00:00 22.7 14 Sudeste 27 Sudoeste -- -- -- 52
2019-05-31 11:00:00 22.4 11 Sur 16 Sudoeste -- -- -- 56
2019-05-31 10:00:00 21.1 8 Oeste 15 Oeste -- -- -- 59
2019-05-31 09:00:00 19.6 4 Norte 8 Norte -- -- -- 64
2019-05-31 08:00:00 15.2 5 Norte 11 Norte -- -- -- 71
2019-05-31 07:00:00 14.9 6 Norte 12 Norte -- -- -- 71
2019-05-31 06:00:00 15.3 6 Norte 12 Norte -- -- -- 73
2019-05-31 05:00:00 15.5 5 Norte 14 Norte -- -- -- 74
2019-05-31 04:00:00 15.8 5 Norte 10 Nordeste -- -- -- 74
2019-05-31 03:00:00 15.4 5 Norte 9 Norte -- -- -- 77
2019-05-31 02:00:00 15.5 5 Norte 8 Norte -- -- -- 78
2019-05-31 01:00:00 16.3 3 Norte 8 Norte -- -- -- 75
2019-05-31 00:00:00 17.2 3 Nordeste 8 Norte -- -- -- 75
2019-05-30 23:00:00 18.2 4 Este 9 Sudeste -- -- -- 71
2019-05-30 22:00:00 18.9 0 Calma 14 Sur -- -- -- 71
2019-05-30 21:00:00 20.6 10 Sur 23 Sudeste -- -- -- 65
2019-05-30 20:00:00 21.7 13 Sudeste 31 Sudeste -- -- -- 56
2019-05-30 19:00:00 22.7 12 Sudeste 34 Sur -- -- -- 52
2019-05-30 18:00:00 22.4 19 Sudeste 34 Sudeste -- -- -- 56
2019-05-30 17:00:00 22.9 19 Sudeste 35 Sudeste -- -- -- 54
2019-05-30 16:00:00 23.2 19 Sur 34 Sudeste -- -- -- 53
2019-05-30 15:00:00 23.6 17 Sudeste 38 Sudeste -- -- -- 52
2019-05-30 14:00:00 23.4 19 Sur 35 Sudeste -- -- -- 54
2019-05-30 13:00:00 22.6 17 Sur 31 Sur -- -- -- 59
2019-05-30 12:00:00 22.1 15 Sudeste 29 Sudeste -- -- -- 61
2019-05-30 11:00:00 21.8 14 Sur 28 Sudeste -- -- -- 60
2019-05-30 10:00:00 21.3 10 Sur 19 Sudeste -- -- -- 62
2019-05-30 09:00:00 19.3 0 Calma 6 Norte -- -- -- 71
2019-05-30 08:00:00 15.1 6 Norte 8 Norte -- -- -- 87
2019-05-30 07:00:00 15.2 3 Norte 9 Nordeste -- -- -- 84
2019-05-30 06:00:00 15.5 4 Norte 12 Norte -- -- -- 82
2019-05-30 05:00:00 15.5 5 Norte 6 Norte -- -- -- 83
2019-05-30 04:00:00 16 3 Norte 6 Este -- -- -- 83
2019-05-30 03:00:00 16.3 3 Norte 6 Norte -- -- -- 84
2019-05-30 02:00:00 16.7 4 Norte 6 Nordeste -- -- -- 85
2019-05-30 01:00:00 17.4 3 Nordeste 6 Nordeste -- -- -- 82
2019-05-30 00:00:00 18.4 3 Este 15 Sudeste -- -- -- 81
2019-05-29 23:00:00 18.8 5 Este 17 Sudeste -- -- -- 78
2019-05-29 22:00:00 19.1 8 Sudeste 24 Sudeste -- -- -- 78
2019-05-29 21:00:00 20.5 9 Sudeste 29 Este -- -- -- 68
2019-05-29 20:00:00 21.9 11 Sudeste 28 Sudeste -- -- -- 59
2019-05-29 19:00:00 22.4 17 Sudeste 27 Sudeste -- -- -- 58
2019-05-29 18:00:00 23 16 Sur 29 Sudeste -- -- -- 61
2019-05-29 17:00:00 23.2 17 Sur 30 Sudeste -- -- -- 65
2019-05-29 16:00:00 23.3 15 Sur 25 Sudeste -- -- -- 65
2019-05-29 15:00:00 23.8 15 Sur 25 Sudoeste -- -- -- 58
2019-05-29 14:00:00 24.6 18 Sur 27 Sudeste -- -- -- 53
2019-05-29 13:00:00 23.9 17 Sur 27 Sur -- -- -- 50
2019-05-29 12:00:00 23.5 13 Sudoeste 21 Sur -- -- -- 63
2019-05-29 11:00:00 22.8 13 Sudoeste 18 Sudoeste -- -- -- 66
2019-05-29 10:00:00 23.4 7 Sudoeste 13 Sudoeste -- -- -- 61
2019-05-29 09:00:00 21.2 5 Norte 10 Norte -- -- -- 70
2019-05-29 08:00:00 17.6 7 Norte 11 Norte -- -- -- 81
2019-05-29 07:00:00 16.8 3 Norte 6 Nordeste -- -- -- 84
2019-05-29 06:00:00 17.2 3 Nordeste 6 Norte -- -- -- 85
2019-05-29 05:00:00 18.1 0 Calma 10 Este -- -- -- 84
2019-05-29 04:00:00 19.2 4 Este 14 Este -- -- -- 82
2019-05-29 03:00:00 17.9 4 Este 12 Sudeste -- -- -- 78
2019-05-29 02:00:00 18 3 Nordeste 5 Sudeste -- -- -- 78
2019-05-29 01:00:00 18.6 2 Nordeste 8 Este -- -- -- 80
2019-05-29 00:00:00 18.6 3 Nordeste 4 Nordeste -- -- -- 75
2019-05-28 23:00:00 19.6 0 Calma 8 Este -- -- -- 72
2019-05-28 22:00:00 20.6 3 Sudeste 13 Sur -- -- -- 73
2019-05-28 21:00:00 21.6 9 Sudeste 15 Sudeste -- -- -- 66
2019-05-28 20:00:00 22.8 10 Sur 19 Sudeste -- -- -- 70
2019-05-28 19:00:00 23.5 10 Sur 21 Sudeste -- -- -- 66
2019-05-28 18:00:00 24.2 11 Sudeste 21 Sudeste -- -- -- 61
2019-05-28 17:00:00 23.9 13 Sudeste 24 Sur -- -- -- 66
2019-05-28 16:00:00 23.9 13 Sudeste 26 Sudeste -- -- -- 64
2019-05-28 15:00:00 23.5 16 Sur 28 Sudeste -- -- -- 66
2019-05-28 14:00:00 23.5 15 Sur 31 Sudeste -- -- -- 70
2019-05-28 13:00:00 23 22 Sudeste 31 Sur -- -- -- 69
2019-05-28 12:00:00 23.4 17 Sur 23 Sur -- -- -- 67
2019-05-28 11:00:00 23.4 11 Sur 15 Sudeste -- -- -- 67
2019-05-28 10:00:00 22.9 3 Sudoeste 8 Sur -- -- -- 69
2019-05-28 09:00:00 20.3 0 Calma 4 Norte -- -- -- 82
2019-05-28 08:00:00 16.6 3 Norte 5 Norte -- -- -- 92
2019-05-28 07:00:00 16.2 4 Norte 6 Norte -- -- -- 90
2019-05-28 06:00:00 16.5 2 Este 6 Este -- -- -- 89
2019-05-28 05:00:00 16.4 0 Calma 4 Nordeste -- -- -- 87
2019-05-28 04:00:00 16.6 2 Norte 5 Norte -- -- -- 86
2019-05-28 03:00:00 17 2 Norte 5 Norte -- -- -- 85
2019-05-28 02:00:00 17.3 2 Nordeste 4 Nordeste -- -- -- 80
2019-05-28 01:00:00 17.9 0 Calma 6 Sudeste -- -- -- 73
2019-05-28 00:00:00 18.3 3 Nordeste 5 Norte -- -- -- 66
2019-05-27 23:00:00 19.1 0 Calma 5 Norte -- -- -- 57
2019-05-27 22:00:00 20.8 0 Calma 5 Noroeste -- -- -- 52
2019-05-27 21:00:00 23.3 3 Oeste 11 Sudoeste -- -- -- 48
2019-05-27 20:00:00 25.2 6 Sudoeste 9 Oeste -- -- -- 38
2019-05-27 19:00:00 25.9 4 Oeste 11 Sudoeste -- -- -- 35
2019-05-27 18:00:00 26.4 6 Sudoeste 16 Sudoeste -- -- -- 34
2019-05-27 17:00:00 25.7 8 Sur 15 Sudoeste -- -- -- 38
2019-05-27 16:00:00 25.5 8 Sudoeste 16 Sudoeste -- -- -- 37
2019-05-27 15:00:00 23.1 7 Sudoeste 18 Sudoeste -- -- -- 51
2019-05-27 14:00:00 22.5 11 Sudoeste 19 Sur -- -- -- 51
2019-05-27 13:00:00 21.8 9 Sudoeste 17 Sudoeste -- -- -- 56
2019-05-27 12:00:00 22.9 9 Sudoeste 15 Oeste -- -- -- 47
2019-05-27 11:00:00 22.4 8 Sudoeste 17 Oeste -- -- -- 54
2019-05-27 10:00:00 22.3 6 Oeste 12 Sudoeste -- -- -- 47
2019-05-27 09:00:00 20.2 0 Calma 6 Norte -- -- -- 58
2019-05-27 08:00:00 15 3 Norte 8 Norte -- -- -- 72
2019-05-27 07:00:00 14.2 4 Norte 8 Norte -- -- -- 73
2019-05-27 06:00:00 14.5 4 Norte 10 Norte -- -- -- 72
2019-05-27 05:00:00 14.3 5 Norte 7 Norte -- -- -- 74
2019-05-27 04:00:00 14.7 3 Este 5 Nordeste -- -- -- 73
2019-05-27 03:00:00 16 2 Norte 12 Norte -- -- -- 67
2019-05-27 02:00:00 16 8 Norte 13 Norte -- -- -- 76
2019-05-27 01:00:00 16.1 3 Nordeste 7 Norte -- -- -- 86
2019-05-27 00:00:00 16.5 0 Calma 2 Sudeste -- -- -- 83
2019-05-26 23:00:00 17.3 0 Calma 3 Nordeste -- -- -- 78
2019-05-26 22:00:00 18.9 0 Calma 8 Sudeste -- -- -- 75
2019-05-26 21:00:00 20.9 4 Sur 10 Sur -- -- -- 62
2019-05-26 20:00:00 22.5 5 Sudoeste 13 Sur -- -- -- 57
2019-05-26 19:00:00 22.8 8 Sudoeste 15 Sur -- -- -- 57
2019-05-26 18:00:00 23.4 10 Sur 17 Sur -- -- -- 57
2019-05-26 17:00:00 23.8 10 Sur 18 Sur -- -- -- 54
2019-05-26 16:00:00 23.6 11 Sur 18 Sur -- -- -- 50
2019-05-26 15:00:00 23.6 11 Sudoeste 19 Sur -- -- -- 51
2019-05-26 14:00:00 23.4 13 Sur 20 Sur -- -- -- 50
2019-05-26 13:00:00 23 10 Sur 15 Sur -- -- -- 48
2019-05-26 12:00:00 22.7 8 Sudoeste 15 Sudoeste -- -- -- 48
2019-05-26 11:00:00 21.8 9 Sudoeste 13 Sur -- -- -- 54
2019-05-26 10:00:00 21.1 5 Sur 10 Sudoeste -- -- -- 55
2019-05-26 09:00:00 18.9 2 Norte 4 Norte -- -- -- 62
2019-05-26 08:00:00 14.7 3 Norte 8 Norte -- -- -- 79
2019-05-26 07:00:00 13.9 4 Norte 9 Norte -- -- -- 80
2019-05-26 06:00:00 14.3 5 Nordeste 9 Norte -- -- -- 80
2019-05-26 05:00:00 14.4 3 Norte 6 Norte -- -- -- 82
2019-05-26 04:00:00 14.9 5 Norte 8 Norte -- -- -- 78
2019-05-26 03:00:00 14.8 4 Norte 7 Norte -- -- -- 78
2019-05-26 02:00:00 15.6 3 Norte 6 Norte -- -- -- 77
2019-05-26 01:00:00 16.1 4 Nordeste 7 Nordeste -- -- -- 76
2019-05-26 00:00:00 16.4 0 Calma 5 Este -- -- -- 75